KART

Watertown International Airport

Watertown, New York, USA
METAR KART 211256Z AUTO 29004KT 10SM FEW060 11/09 A3003 RMK AO2 SLP168 T01060089
Observed Flight Rules
Feb-21 @ 12:56 UTC (19 minutes ago) Visual Flight Rules
Wind Visibility Clouds
290° at 4 knots 10 miles
  • Few at 6,000' AGL
Temperatures Readings
Current 11°C / 52°F
Dewpoint 9°C / 48°F
Humidity 88%
Altimeter 30.03" Hg
Pressure 1016.8 hPa
Elevation 100
METAR KART 211256Z AUTO 29004KT 10SM FEW060 11/09 A3003 RMK AO2 SLP168 T01060089
Observed Flight Rules
Feb-21 @ 12:56 UTC
(19 minutes ago)
VFR
Wind Visibility
290° at 4 knots 10 miles
Clouds
  • Few at 6,000' AGL
Temperature Dewpoint
11°C / 52°F 9°C / 48°F
Humidity Altimeter Pressure
88% 30.03" Hg 1016.8 hPa